Time;durP1;ratioP1;P1;durP2;ratioP2;P2;SDS_P1;SDS_P2;PMS_P1;PMS_P2;Temp;Humidity;BMP_temperature;BMP_pressure;BME280_temperature;BME280_humidity;BME280_pressure;Samples;Min_cycle;Max_cycle;Signal;HPM_P1;HPM_P2
2021/04/22 00:02:09;;;;;;;9.75;2.80;;;;;;;;;;4979746;28;20102;-77
2021/04/22 00:04:36;;;;;;;15.30;2.55;;;;;;;;;;4978323;28;20015;-78
2021/04/22 00:07:02;;;;;;;11.02;3.13;;;;;;;;;;4975654;28;20118;-77
2021/04/22 00:09:27;;;;;;;8.50;2.63;;;;;;;;;;4975697;28;20125;-77
2021/04/22 00:11:52;;;;;;;11.88;2.97;;;;;;;;;;4976001;28;20357;-77
2021/04/22 00:14:18;;;;;;;12.55;2.60;;;;;;;;;;4975492;28;20037;-78
2021/04/22 00:16:45;;;;;;;10.98;2.85;;;;;;;;;;4975733;28;20054;-78
2021/04/22 00:19:11;;;;;;;11.40;2.50;;;;;;;;;;4975756;28;20081;-77
2021/04/22 00:21:41;;;;;;;8.85;2.45;;;;;;;;;;4964114;28;20020;-78
2021/04/22 00:24:07;;;;;;;9.05;2.60;;;;;;;;;;4956473;29;20019;-79
2021/04/22 00:26:32;;;;;;;10.70;2.65;;;;;;;;;;4956015;29;20424;-76
2021/04/22 00:28:57;;;;;;;9.23;2.45;;;;;;;;;;4950724;29;20023;-75
2021/04/22 00:31:23;;;;;;;11.38;2.60;;;;;;;;;;4945962;29;20035;-76
2021/04/22 00:33:53;;;;;;;11.52;3.10;;;;;;;;;;4939067;29;20024;-77
2021/04/22 00:36:20;;;;;;;12.38;3.28;;;;;;;;;;4936727;29;20016;-76
2021/04/22 00:38:45;;;;;;;14.32;3.10;;;;;;;;;;4937104;29;20016;-77
2021/04/22 00:41:11;;;;;;;12.05;2.25;;;;;;;;;;4951328;29;20038;-77
2021/04/22 00:43:36;;;;;;;11.15;2.92;;;;;;;;;;4955830;29;20492;-76
2021/04/22 00:46:02;;;;;;;13.48;3.13;;;;;;;;;;4955109;29;20027;-77
2021/04/22 00:48:28;;;;;;;9.30;2.70;;;;;;;;;;4955774;29;20385;-77
2021/04/22 00:50:54;;;;;;;14.82;3.25;;;;;;;;;;4955191;28;20038;-77
2021/04/22 00:53:20;;;;;;;10.35;2.83;;;;;;;;;;4958242;28;20459;-77
2021/04/22 00:55:46;;;;;;;13.70;3.08;;;;;;;;;;4955506;29;20024;-77
2021/04/22 00:58:11;;;;;;;15.82;3.30;;;;;;;;;;4955302;29;20030;-77
2021/04/22 01:00:38;;;;;;;15.48;2.92;;;;;;;;;;4955177;29;20023;-77
2021/04/22 01:03:06;;;;;;;14.25;2.70;;;;;;;;;;4960399;28;20071;-77
2021/04/22 01:05:33;;;;;;;14.90;3.10;;;;;;;;;;4954618;28;20031;-77
2021/04/22 01:07:58;;;;;;;12.18;2.83;;;;;;;;;;4955417;29;20023;-76
2021/04/22 01:10:24;;;;;;;12.82;3.08;;;;;;;;;;4968998;28;20027;-77
2021/04/22 01:12:49;;;;;;;15.48;3.33;;;;;;;;;;4972506;28;20097;-76
2021/04/22 01:15:25;;;;;;;14.85;3.35;;;;;;;;;;4955169;28;20081;-76
2021/04/22 01:17:53;;;;;;;15.60;3.42;;;;;;;;;;4953237;28;20052;-76
2021/04/22 01:20:19;;;;;;;15.20;3.33;;;;;;;;;;4954914;29;20026;-76
2021/04/22 01:22:45;;;;;;;15.85;3.40;;;;;;;;;;4941381;28;20034;-76
2021/04/22 01:25:12;;;;;;;15.73;3.53;;;;;;;;;;4954446;28;20437;-77
2021/04/22 01:27:38;;;;;;;15.20;3.15;;;;;;;;;;4955096;29;20023;-77
2021/04/22 01:30:07;;;;;;;13.18;3.42;;;;;;;;;;4954318;29;20592;-77
2021/04/22 01:32:32;;;;;;;14.85;3.33;;;;;;;;;;4953701;29;20027;-77
2021/04/22 01:34:57;;;;;;;19.17;3.42;;;;;;;;;;4955452;29;20041;-76
2021/04/22 01:37:27;;;;;;;16.98;3.13;;;;;;;;;;4954589;29;20039;-77
2021/04/22 01:39:53;;;;;;;18.23;3.33;;;;;;;;;;4948725;29;20055;-77
2021/04/22 01:42:18;;;;;;;16.27;3.85;;;;;;;;;;4936086;29;20425;-78
2021/04/22 01:44:43;;;;;;;18.55;3.38;;;;;;;;;;4935878;29;20066;-77
2021/04/22 01:47:08;;;;;;;19.05;3.80;;;;;;;;;;4953216;29;20041;-77
2021/04/22 01:49:36;;;;;;;12.98;3.20;;;;;;;;;;4954098;29;20031;-77
2021/04/22 01:52:01;;;;;;;15.30;3.40;;;;;;;;;;4954451;28;20333;-77
2021/04/22 01:54:26;;;;;;;14.70;3.00;;;;;;;;;;4955102;29;20094;-77
2021/04/22 01:56:53;;;;;;;13.77;3.58;;;;;;;;;;4954372;29;20466;-76
2021/04/22 01:59:21;;;;;;;17.60;3.55;;;;;;;;;;4954119;29;20404;-77
2021/04/22 02:01:46;;;;;;;20.20;3.63;;;;;;;;;;4955191;29;20030;-78
2021/04/22 02:04:11;;;;;;;16.50;3.40;;;;;;;;;;4954306;29;20031;-77
2021/04/22 02:06:37;;;;;;;21.65;3.70;;;;;;;;;;4954475;29;20024;-78
2021/04/22 02:09:02;;;;;;;18.13;4.00;;;;;;;;;;4955312;29;20032;-77
2021/04/22 02:11:30;;;;;;;18.10;3.72;;;;;;;;;;4955202;29;20375;-77
2021/04/22 02:13:55;;;;;;;15.90;3.67;;;;;;;;;;4954630;29;20034;-78
2021/04/22 02:16:23;;;;;;;19.98;3.60;;;;;;;;;;4943811;29;20024;-77
2021/04/22 02:18:48;;;;;;;17.70;3.35;;;;;;;;;;4964674;28;20050;-78
2021/04/22 02:21:13;;;;;;;17.88;3.58;;;;;;;;;;4973495;28;20031;-78
2021/04/22 02:23:38;;;;;;;20.92;3.55;;;;;;;;;;4986807;28;20026;-77
2021/04/22 02:26:06;;;;;;;19.00;3.90;;;;;;;;;;4993451;28;20029;-78
2021/04/22 02:28:31;;;;;;;13.90;3.17;;;;;;;;;;4996333;28;20113;-77
2021/04/22 02:30:56;;;;;;;14.45;3.92;;;;;;;;;;4996859;28;20295;-77
2021/04/22 02:33:21;;;;;;;19.73;3.58;;;;;;;;;;4997167;28;20030;-78
2021/04/22 02:35:48;;;;;;;17.58;3.33;;;;;;;;;;4982741;28;20030;-77
2021/04/22 02:38:14;;;;;;;20.88;3.72;;;;;;;;;;4977501;28;20033;-77
2021/04/22 02:40:40;;;;;;;18.60;3.88;;;;;;;;;;4967782;28;20109;-77
2021/04/22 02:43:07;;;;;;;18.67;3.63;;;;;;;;;;4976962;28;20022;-77
2021/04/22 02:45:37;;;;;;;17.08;3.63;;;;;;;;;;4976970;28;20023;-77
2021/04/22 02:48:05;;;;;;;23.80;4.03;;;;;;;;;;4980670;28;20042;-78
2021/04/22 02:50:32;;;;;;;19.50;3.60;;;;;;;;;;4976546;28;20023;-77
2021/04/22 02:52:57;;;;;;;18.42;3.58;;;;;;;;;;4977524;28;20045;-76
2021/04/22 02:55:25;;;;;;;16.95;3.50;;;;;;;;;;4978544;28;20035;-77
2021/04/22 02:57:52;;;;;;;15.15;3.65;;;;;;;;;;4994737;28;20094;-75
2021/04/22 03:00:19;;;;;;;19.48;3.75;;;;;;;;;;4988375;28;20014;-77
2021/04/22 03:02:47;;;;;;;15.40;3.58;;;;;;;;;;4978493;28;20081;-77
2021/04/22 03:05:13;;;;;;;18.48;3.65;;;;;;;;;;4977437;28;20404;-77
2021/04/22 03:07:38;;;;;;;15.80;3.65;;;;;;;;;;4977200;28;20038;-77
2021/04/22 03:10:07;;;;;;;12.90;3.20;;;;;;;;;;4976023;28;20097;-77
2021/04/22 03:12:33;;;;;;;12.15;3.63;;;;;;;;;;4977355;28;20168;-78
2021/04/22 03:15:01;;;;;;;18.33;4.30;;;;;;;;;;4984427;28;20874;-78
2021/04/22 03:17:26;;;;;;;15.88;3.30;;;;;;;;;;4950834;28;20102;-78
2021/04/22 03:19:51;;;;;;;13.80;4.10;;;;;;;;;;4956314;29;20023;-77
2021/04/22 03:22:19;;;;;;;17.67;4.05;;;;;;;;;;4947413;29;20035;-76
2021/04/22 03:24:46;;;;;;;16.90;3.38;;;;;;;;;;4938279;29;20019;-78
2021/04/22 03:27:13;;;;;;;22.40;3.92;;;;;;;;;;4938144;29;20019;-77
2021/04/22 03:29:39;;;;;;;16.70;3.47;;;;;;;;;;4938343;29;20060;-77
2021/04/22 03:32:04;;;;;;;21.10;4.28;;;;;;;;;;4954241;28;20055;-78
2021/04/22 03:34:32;;;;;;;20.95;4.20;;;;;;;;;;4956986;29;20412;-76
2021/04/22 03:36:57;;;;;;;17.50;3.85;;;;;;;;;;4956443;28;20031;-77
2021/04/22 03:39:22;;;;;;;22.77;4.07;;;;;;;;;;4956292;28;20049;-77
2021/04/22 03:41:47;;;;;;;;;;;;;;;;;;4957675;28;20042;-77
2021/04/22 03:44:12;;;;;;;26.65;4.18;;;;;;;;;;4957817;28;19921;-77
2021/04/22 03:46:40;;;;;;;20.35;3.63;;;;;;;;;;4953486;28;20018;-76
2021/04/22 03:49:05;;;;;;;17.88;4.00;;;;;;;;;;4955899;28;20015;-75
2021/04/22 03:51:33;;;;;;;21.75;4.07;;;;;;;;;;4950751;28;20019;-77
2021/04/22 03:53:58;;;;;;;26.98;4.55;;;;;;;;;;4952821;28;20050;-77
2021/04/22 03:56:26;;;;;;;20.58;4.05;;;;;;;;;;4952495;28;20357;-77
2021/04/22 03:58:54;;;;;;;24.20;3.85;;;;;;;;;;4948439;28;20007;-77
2021/04/22 04:01:19;;;;;;;21.23;4.38;;;;;;;;;;4949678;28;20056;-77
2021/04/22 04:03:44;;;;;;;16.00;3.85;;;;;;;;;;4948759;28;20023;-77
2021/04/22 04:06:09;;;;;;;23.35;4.00;;;;;;;;;;4954889;28;20027;-77
2021/04/22 04:08:34;;;;;;;22.98;4.18;;;;;;;;;;4962698;28;20033;-77
2021/04/22 04:11:00;;;;;;;20.88;4.15;;;;;;;;;;4967584;28;20027;-77
2021/04/22 04:13:25;;;;;;;19.63;4.47;;;;;;;;;;4955438;29;20027;-77
2021/04/22 04:15:51;;;;;;;19.00;4.18;;;;;;;;;;4955791;29;20078;-77
2021/04/22 04:18:22;;;;;;;20.40;4.50;;;;;;;;;;4972203;28;20093;-78
2021/04/22 04:20:47;;;;;;;18.73;4.15;;;;;;;;;;4975980;28;20015;-78
2021/04/22 04:23:13;;;;;;;19.05;4.75;;;;;;;;;;4975103;28;20037;-77
2021/04/22 04:25:38;;;;;;;19.55;3.95;;;;;;;;;;4975706;28;20065;-78
2021/04/22 04:28:03;;;;;;;19.25;3.85;;;;;;;;;;4971633;28;20019;-78
2021/04/22 04:30:29;;;;;;;21.17;3.83;;;;;;;;;;4974436;28;20062;-77
2021/04/22 04:32:59;;;;;;;23.00;4.47;;;;;;;;;;4975338;28;20026;-77
2021/04/22 04:35:27;;;;;;;20.35;3.97;;;;;;;;;;4975652;28;20098;-77
2021/04/22 04:37:55;;;;;;;23.40;4.57;;;;;;;;;;4975652;28;20022;-77
2021/04/22 04:40:22;;;;;;;19.38;4.15;;;;;;;;;;4975978;28;20014;-78
2021/04/22 04:42:47;;;;;;;23.02;4.78;;;;;;;;;;4975073;28;20448;-78
2021/04/22 04:45:17;;;;;;;19.63;4.43;;;;;;;;;;4975222;28;20054;-78
2021/04/22 04:47:43;;;;;;;29.98;5.55;;;;;;;;;;4974748;28;20110;-78
2021/04/22 04:50:09;;;;;;;23.38;4.32;;;;;;;;;;4973966;28;20085;-78
2021/04/22 04:52:34;;;;;;;16.42;4.70;;;;;;;;;;4974475;28;20019;-77
2021/04/22 04:54:59;;;;;;;23.30;4.65;;;;;;;;;;4974640;28;20159;-77
2021/04/22 04:57:27;;;;;;;18.50;4.78;;;;;;;;;;4957007;28;20042;-77
2021/04/22 04:59:53;;;;;;;23.67;5.20;;;;;;;;;;4978301;28;20139;-77
2021/04/22 05:02:18;;;;;;;22.05;4.95;;;;;;;;;;4982846;28;20097;-79
2021/04/22 05:04:43;;;;;;;22.25;4.85;;;;;;;;;;4985579;28;20011;-78
2021/04/22 05:07:09;;;;;;;25.60;4.93;;;;;;;;;;4982884;28;20092;-78
2021/04/22 05:09:35;;;;;;;19.92;4.68;;;;;;;;;;4981450;28;20026;-77
2021/04/22 05:12:01;;;;;;;24.92;5.47;;;;;;;;;;4984545;28;20019;-78
2021/04/22 05:14:26;;;;;;;21.42;4.78;;;;;;;;;;4981578;28;20033;-78
2021/04/22 05:16:51;;;;;;;28.02;5.75;;;;;;;;;;4981459;28;20503;-78
2021/04/22 05:19:17;;;;;;;26.40;5.47;;;;;;;;;;4977137;28;20387;-78
2021/04/22 05:21:44;;;;;;;23.38;4.50;;;;;;;;;;4975348;28;20027;-78
2021/04/22 05:24:10;;;;;;;22.17;5.13;;;;;;;;;;4976851;28;20567;-78
2021/04/22 05:26:35;;;;;;;22.27;4.82;;;;;;;;;;4980865;28;20133;-78
2021/04/22 05:29:03;;;;;;;24.42;5.55;;;;;;;;;;4977456;28;20451;-77
2021/04/22 05:31:28;;;;;;;24.92;5.30;;;;;;;;;;4980660;28;20034;-77
2021/04/22 05:33:53;;;;;;;22.90;4.85;;;;;;;;;;4974373;28;20023;-77
2021/04/22 05:36:21;;;;;;;25.95;5.70;;;;;;;;;;4976534;28;20109;-77
2021/04/22 05:38:50;;;;;;;18.20;5.30;;;;;;;;;;4982249;28;20014;-77
2021/04/22 05:41:16;;;;;;;21.75;5.07;;;;;;;;;;4985746;28;20050;-77
2021/04/22 05:43:41;;;;;;;27.55;5.97;;;;;;;;;;4980658;28;20166;-77
2021/04/22 05:46:06;;;;;;;24.50;5.78;;;;;;;;;;4989032;28;20101;-78
2021/04/22 05:48:31;;;;;;;19.45;5.25;;;;;;;;;;4989798;28;20058;-78
2021/04/22 05:51:02;;;;;;;26.15;6.65;;;;;;;;;;4974139;28;20019;-73
2021/04/22 05:53:27;;;;;;;22.25;5.30;;;;;;;;;;4976180;28;20042;-77
2021/04/22 05:55:53;;;;;;;27.00;5.60;;;;;;;;;;4973547;28;20022;-79
2021/04/22 05:58:18;;;;;;;26.35;5.70;;;;;;;;;;4973192;28;20033;-76
2021/04/22 06:00:43;;;;;;;29.63;5.93;;;;;;;;;;4981039;28;20018;-77
2021/04/22 06:03:09;;;;;;;27.08;6.18;;;;;;;;;;4975532;28;20094;-77
2021/04/22 06:05:35;;;;;;;27.80;5.80;;;;;;;;;;4978585;28;20014;-77
2021/04/22 06:08:00;;;;;;;24.88;5.72;;;;;;;;;;4973137;28;20022;-76
2021/04/22 06:10:25;;;;;;;22.75;5.85;;;;;;;;;;4976438;28;20054;-78
2021/04/22 06:12:51;;;;;;;27.10;6.15;;;;;;;;;;4973853;28;20019;-76
2021/04/22 06:15:17;;;;;;;21.48;5.53;;;;;;;;;;4977600;28;20030;-77
2021/04/22 06:17:43;;;;;;;22.58;6.20;;;;;;;;;;4977525;28;20100;-78
2021/04/22 06:20:09;;;;;;;30.42;6.63;;;;;;;;;;4980214;28;20572;-78
2021/04/22 06:22:34;;;;;;;25.10;6.13;;;;;;;;;;4977339;28;20355;-77
2021/04/22 06:25:00;;;;;;;22.10;5.90;;;;;;;;;;4975716;28;20022;-77
2021/04/22 06:27:25;;;;;;;20.48;5.72;;;;;;;;;;4975545;28;20054;-77
2021/04/22 06:29:50;;;;;;;25.08;6.22;;;;;;;;;;4984952;28;20379;-77
2021/04/22 06:32:15;;;;;;;33.70;6.45;;;;;;;;;;4981101;28;20452;-76
2021/04/22 06:34:40;;;;;;;23.98;6.40;;;;;;;;;;4979932;28;20023;-76
2021/04/22 06:37:06;;;;;;;23.13;6.57;;;;;;;;;;4978816;28;20635;-76
2021/04/22 06:39:31;;;;;;;24.88;5.90;;;;;;;;;;4981951;28;20058;-78
2021/04/22 06:41:57;;;;;;;20.75;6.28;;;;;;;;;;4980373;28;20019;-77
2021/04/22 06:44:25;;;;;;;23.20;5.97;;;;;;;;;;4980605;28;20358;-77
2021/04/22 06:46:53;;;;;;;29.92;6.60;;;;;;;;;;4981634;28;20028;-77
2021/04/22 06:49:18;;;;;;;19.38;6.35;;;;;;;;;;4980706;28;20041;-78
2021/04/22 06:51:44;;;;;;;24.70;5.85;;;;;;;;;;4980854;28;20118;-77
2021/04/22 06:54:13;;;;;;;23.42;6.43;;;;;;;;;;4981685;28;20114;-77
2021/04/22 06:56:39;;;;;;;28.98;6.55;;;;;;;;;;4975972;28;20144;-77
2021/04/22 06:59:05;;;;;;;24.17;6.93;;;;;;;;;;4979062;28;20022;-77
2021/04/22 07:01:30;;;;;;;30.02;7.03;;;;;;;;;;4977685;28;20018;-76
2021/04/22 07:03:55;;;;;;;16.95;6.13;;;;;;;;;;4979996;28;20042;-75
2021/04/22 07:06:24;;;;;;;27.05;6.93;;;;;;;;;;4984294;28;20031;-76
2021/04/22 07:08:49;;;;;;;26.80;6.70;;;;;;;;;;4965639;28;20026;-77
2021/04/22 07:11:15;;;;;;;25.55;7.32;;;;;;;;;;4980720;28;20042;-77
2021/04/22 07:13:40;;;;;;;26.58;7.20;;;;;;;;;;4978011;28;20026;-77
2021/04/22 07:16:05;;;;;;;25.42;6.80;;;;;;;;;;4977595;28;20033;-78
2021/04/22 07:18:31;;;;;;;21.55;7.05;;;;;;;;;;4962437;28;20043;-79
2021/04/22 07:20:56;;;;;;;22.92;6.30;;;;;;;;;;4968793;29;20022;-77
2021/04/22 07:23:21;;;;;;;21.92;7.32;;;;;;;;;;4964872;29;20027;-78
2021/04/22 07:25:48;;;;;;;25.65;7.32;;;;;;;;;;4957487;29;20121;-78
2021/04/22 07:28:16;;;;;;;26.70;7.25;;;;;;;;;;4956426;28;20481;-78
2021/04/22 07:30:42;;;;;;;21.77;7.15;;;;;;;;;;4957533;28;20058;-78
2021/04/22 07:33:07;;;;;;;22.15;6.70;;;;;;;;;;4959926;28;20046;-78
2021/04/22 07:35:33;;;;;;;28.40;7.45;;;;;;;;;;4957582;28;20023;-76
2021/04/22 07:37:58;;;;;;;27.75;6.57;;;;;;;;;;4958250;28;20031;-76
2021/04/22 07:40:26;;;;;;;24.02;7.07;;;;;;;;;;4956837;28;20035;-77
2021/04/22 07:42:51;;;;;;;31.67;7.90;;;;;;;;;;4957022;28;20023;-78
2021/04/22 07:45:20;;;;;;;22.23;6.78;;;;;;;;;;4963320;28;20105;-77
2021/04/22 07:47:45;;;;;;;22.02;7.88;;;;;;;;;;4963058;28;20015;-77
2021/04/22 07:50:13;;;;;;;21.60;7.30;;;;;;;;;;4962114;28;20047;-78
2021/04/22 07:52:38;;;;;;;21.70;7.40;;;;;;;;;;4957560;28;20023;-78
2021/04/22 07:55:05;;;;;;;18.67;6.10;;;;;;;;;;4956110;29;20042;-77
2021/04/22 07:57:30;;;;;;;22.33;6.50;;;;;;;;;;4967512;28;20041;-76
2021/04/22 07:59:56;;;;;;;24.48;6.57;;;;;;;;;;4962868;28;20102;-76
2021/04/22 08:02:23;;;;;;;24.77;6.05;;;;;;;;;;4968325;28;20129;-74
2021/04/22 08:04:51;;;;;;;16.25;4.20;;;;;;;;;;4963839;28;20027;-75
2021/04/22 08:07:16;;;;;;;16.00;4.70;;;;;;;;;;4956691;29;20111;-76
2021/04/22 08:09:41;;;;;;;15.55;4.22;;;;;;;;;;4957029;29;20114;-76
2021/04/22 08:12:07;;;;;;;15.75;4.18;;;;;;;;;;4959113;28;20019;-75
2021/04/22 08:14:33;;;;;;;11.05;3.72;;;;;;;;;;4967966;28;20061;-76
2021/04/22 08:16:58;;;;;;;12.90;4.18;;;;;;;;;;4955729;28;20051;-75
2021/04/22 08:19:23;;;;;;;12.50;4.07;;;;;;;;;;4954726;28;20028;-76
2021/04/22 08:21:48;;;;;;;20.48;4.20;;;;;;;;;;4955792;29;20325;-76
2021/04/22 08:24:16;;;;;;;22.20;5.20;;;;;;;;;;4952626;29;20023;-76
2021/04/22 08:26:42;;;;;;;16.23;4.25;;;;;;;;;;4955465;28;20475;-76
2021/04/22 08:29:08;;;;;;;13.68;3.88;;;;;;;;;;4955146;28;20115;-77
2021/04/22 08:31:36;;;;;;;12.88;4.05;;;;;;;;;;4958011;28;20350;-77
2021/04/22 08:34:07;;;;;;;17.08;4.45;;;;;;;;;;4959241;28;20476;-77
2021/04/22 08:36:32;;;;;;;16.63;4.30;;;;;;;;;;4968601;28;20027;-76
2021/04/22 08:38:57;;;;;;;17.00;4.60;;;;;;;;;;4973821;28;20034;-78
2021/04/22 08:41:22;;;;;;;16.17;4.38;;;;;;;;;;4952283;28;20111;-77
2021/04/22 08:43:48;;;;;;;10.02;3.70;;;;;;;;;;4955639;29;20412;-77
2021/04/22 08:46:14;;;;;;;19.70;4.80;;;;;;;;;;4956880;28;20770;-76
2021/04/22 08:48:45;;;;;;;15.82;4.40;;;;;;;;;;4956066;29;20106;-77
2021/04/22 08:51:11;;;;;;;18.92;5.03;;;;;;;;;;4955939;29;20031;-76
2021/04/22 08:53:38;;;;;;;18.60;5.20;;;;;;;;;;4955998;29;20019;-76
2021/04/22 08:56:03;;;;;;;15.95;5.10;;;;;;;;;;4956037;29;20448;-76
2021/04/22 08:58:29;;;;;;;13.98;5.03;;;;;;;;;;4960827;28;20037;-75
2021/04/22 09:00:56;;;;;;;19.45;5.07;;;;;;;;;;4954312;29;20020;-76
2021/04/22 09:03:22;;;;;;;25.23;5.47;;;;;;;;;;4954323;28;20042;-76
2021/04/22 09:05:47;;;;;;;17.25;4.97;;;;;;;;;;4955255;29;20380;-75
2021/04/22 09:08:13;;;;;;;20.13;5.40;;;;;;;;;;4955236;28;20035;-76
2021/04/22 09:10:38;;;;;;;15.93;5.13;;;;;;;;;;4964714;28;20027;-76
2021/04/22 09:13:16;;;;;;;16.35;5.05;;;;;;;;;;4971883;28;20359;-76
2021/04/22 09:15:48;;;;;;;18.02;5.28;;;;;;;;;;4961178;28;20160;-76
2021/04/22 09:18:15;;;;;;;17.15;4.65;;;;;;;;;;4970308;28;20125;-76
2021/04/22 09:20:47;;;;;;;14.80;4.95;;;;;;;;;;4975538;28;20116;-76
2021/04/22 09:23:33;;;;;;;17.27;5.03;;;;;;;;;;4957243;28;20019;-76
2021/04/22 09:26:03;;;;;;;15.52;5.13;;;;;;;;;;4972735;28;20463;-76
2021/04/22 09:28:32;;;;;;;16.30;4.70;;;;;;;;;;4977051;28;20565;-76
2021/04/22 09:30:57;;;;;;;10.63;4.40;;;;;;;;;;4981648;28;20053;-76
2021/04/22 09:33:23;;;;;;;14.50;4.75;;;;;;;;;;4973721;28;20431;-76
2021/04/22 09:35:49;;;;;;;16.23;4.53;;;;;;;;;;4973284;28;20023;-76
2021/04/22 09:38:18;;;;;;;17.42;4.90;;;;;;;;;;4980130;28;20463;-77
2021/04/22 09:40:45;;;;;;;15.95;4.75;;;;;;;;;;4989086;28;20033;-77
2021/04/22 09:43:13;;;;;;;14.73;4.53;;;;;;;;;;4980872;28;20023;-78
2021/04/22 09:45:41;;;;;;;15.10;4.32;;;;;;;;;;4966738;28;20019;-78
2021/04/22 09:48:15;;;;;;;22.42;5.50;;;;;;;;;;4967969;28;20085;-80
2021/04/22 09:50:42;;;;;;;15.55;5.15;;;;;;;;;;4973209;28;20360;-78
2021/04/22 09:53:07;;;;;;;13.10;5.30;;;;;;;;;;4981960;28;20011;-78
2021/04/22 09:55:32;;;;;;;16.58;4.68;;;;;;;;;;4973882;28;20034;-76
2021/04/22 09:57:58;;;;;;;14.88;5.00;;;;;;;;;;4973462;28;20011;-75
2021/04/22 10:00:28;;;;;;;19.90;4.70;;;;;;;;;;4980285;28;20033;-77
2021/04/22 10:02:57;;;;;;;17.27;4.75;;;;;;;;;;4975514;28;20023;-77
2021/04/22 10:05:26;;;;;;;18.15;4.95;;;;;;;;;;4983264;28;20102;-77
2021/04/22 10:08:07;;;;;;;16.52;5.30;;;;;;;;;;4982895;28;20010;-78
2021/04/22 10:10:33;;;;;;;19.90;5.38;;;;;;;;;;4986729;28;20363;-80
2021/04/22 10:12:59;;;;;;;13.02;4.75;;;;;;;;;;4976697;28;20042;-80
2021/04/22 10:15:25;;;;;;;13.82;4.40;;;;;;;;;;4971959;28;20073;-79
2021/04/22 10:18:00;;;;;;;14.90;4.28;;;;;;;;;;4973321;28;20424;-79
2021/04/22 10:20:27;;;;;;;17.35;4.60;;;;;;;;;;4975378;28;20105;-79
2021/04/22 10:22:53;;;;;;;14.70;4.68;;;;;;;;;;4975991;28;20030;-79
2021/04/22 10:25:26;;;;;;;17.17;4.50;;;;;;;;;;4975625;28;20073;-78
2021/04/22 10:27:52;;;;;;;19.67;4.35;;;;;;;;;;4971944;28;20019;-78
2021/04/22 10:30:19;;;;;;;12.25;4.50;;;;;;;;;;4975366;28;20467;-78
2021/04/22 10:32:47;;;;;;;16.67;4.80;;;;;;;;;;4989332;28;20060;-76
2021/04/22 10:35:14;;;;;;;13.13;4.53;;;;;;;;;;4983120;28;20103;-76
2021/04/22 10:37:41;;;;;;;12.95;4.35;;;;;;;;;;4987233;28;20462;-76
2021/04/22 10:40:08;;;;;;;15.45;4.93;;;;;;;;;;4969690;28;20031;-77
2021/04/22 10:42:35;;;;;;;14.70;4.90;;;;;;;;;;4978754;28;20015;-78
2021/04/22 10:45:01;;;;;;;14.07;4.90;;;;;;;;;;4975653;28;20019;-78
2021/04/22 10:47:27;;;;;;;13.40;4.60;;;;;;;;;;4975890;28;20089;-79
2021/04/22 10:49:52;;;;;;;10.43;4.13;;;;;;;;;;4977628;28;20023;-78
2021/04/22 10:52:21;;;;;;;14.55;3.72;;;;;;;;;;4977665;28;20725;-78
2021/04/22 10:54:46;;;;;;;14.07;4.28;;;;;;;;;;4982986;28;20098;-77
2021/04/22 10:57:18;;;;;;;15.88;4.80;;;;;;;;;;4981090;28;20106;-77
2021/04/22 10:59:44;;;;;;;13.70;3.80;;;;;;;;;;4975800;28;20149;-77
2021/04/22 11:02:13;;;;;;;14.15;4.07;;;;;;;;;;4970377;28;20146;-78
2021/04/22 11:04:39;;;;;;;14.77;4.25;;;;;;;;;;4973025;28;20026;-77
2021/04/22 11:07:24;;;;;;;10.23;3.88;;;;;;;;;;4976095;28;20019;-74
2021/04/22 11:09:53;;;;;;;9.27;3.72;;;;;;;;;;4973726;28;20372;-77
2021/04/22 11:12:22;;;;;;;9.70;3.88;;;;;;;;;;4977215;28;20038;-77
2021/04/22 11:14:51;;;;;;;10.88;4.07;;;;;;;;;;4976162;28;20034;-77
2021/04/22 11:17:19;;;;;;;12.68;4.40;;;;;;;;;;4975346;28;20047;-77
2021/04/22 11:19:47;;;;;;;12.52;4.25;;;;;;;;;;4976510;28;20312;-78
2021/04/22 11:22:14;;;;;;;12.77;4.03;;;;;;;;;;4976471;28;20022;-78
2021/04/22 11:25:00;;;;;;;10.27;3.42;;;;;;;;;;4977111;28;20019;-78
2021/04/22 11:27:26;;;;;;;12.02;4.50;;;;;;;;;;4976429;28;20471;-78
2021/04/22 11:29:57;;;;;;;11.13;3.97;;;;;;;;;;4977011;28;20101;-78
2021/04/22 11:32:25;;;;;;;7.78;3.50;;;;;;;;;;4974856;28;20019;-76
2021/04/22 11:34:51;;;;;;;14.05;4.07;;;;;;;;;;4975567;28;20034;-77
2021/04/22 11:37:21;;;;;;;12.68;4.65;;;;;;;;;;4992044;28;20036;-75
2021/04/22 11:39:47;;;;;;;10.02;4.07;;;;;;;;;;4987205;28;20027;-76
2021/04/22 11:42:16;;;;;;;11.90;3.95;;;;;;;;;;4958048;28;20486;-77
2021/04/22 11:44:51;;;;;;;9.60;3.90;;;;;;;;;;4976065;28;20039;-75
2021/04/22 11:47:19;;;;;;;11.77;3.92;;;;;;;;;;4974999;28;20030;-75
2021/04/22 11:49:45;;;;;;;11.27;3.55;;;;;;;;;;4975486;28;20338;-77
2021/04/22 11:52:22;;;;;;;11.93;4.43;;;;;;;;;;4974490;28;20035;-76
2021/04/22 11:54:48;;;;;;;9.32;3.72;;;;;;;;;;4974478;28;20070;-77
2021/04/22 11:57:14;;;;;;;11.98;4.20;;;;;;;;;;4975306;28;20435;-76
2021/04/22 11:59:39;;;;;;;9.95;3.80;;;;;;;;;;4981312;28;20037;-75
2021/04/22 12:02:14;;;;;;;10.77;3.53;;;;;;;;;;4981377;28;20027;-76
2021/04/22 12:04:43;;;;;;;9.65;3.72;;;;;;;;;;4974485;28;20058;-77
2021/04/22 12:07:19;;;;;;;12.73;3.42;;;;;;;;;;4972349;28;20157;-76
2021/04/22 12:09:52;;;;;;;9.95;3.35;;;;;;;;;;4977208;28;20025;-76
2021/04/22 12:12:29;;;;;;;10.00;3.40;;;;;;;;;;4969641;28;20023;-77
2021/04/22 12:15:03;;;;;;;8.57;3.47;;;;;;;;;;4969401;28;20460;-76
2021/04/22 12:17:35;;;;;;;13.07;3.33;;;;;;;;;;4979880;28;20046;-76
2021/04/22 12:20:00;;;;;;;7.10;3.10;;;;;;;;;;4979958;28;20034;-76
2021/04/22 12:22:30;;;;;;;16.53;3.70;;;;;;;;;;4980861;28;20010;-76
2021/04/22 12:24:56;;;;;;;8.77;3.60;;;;;;;;;;4981940;28;20359;-76
2021/04/22 12:27:26;;;;;;;7.55;3.00;;;;;;;;;;4985209;28;20022;-78
2021/04/22 12:29:51;;;;;;;11.80;3.80;;;;;;;;;;4984924;28;20011;-78
2021/04/22 12:32:16;;;;;;;11.80;3.60;;;;;;;;;;4986322;28;20025;-78
2021/04/22 12:34:44;;;;;;;13.60;3.63;;;;;;;;;;4982923;28;20029;-78
2021/04/22 12:37:15;;;;;;;13.25;3.47;;;;;;;;;;4984329;28;20023;-79
2021/04/22 12:39:42;;;;;;;10.93;3.28;;;;;;;;;;4982737;28;20043;-78
2021/04/22 12:42:07;;;;;;;9.27;3.50;;;;;;;;;;4982647;28;20029;-78
2021/04/22 12:44:33;;;;;;;9.20;3.10;;;;;;;;;;4969498;28;20023;-80
2021/04/22 12:47:09;;;;;;;11.30;3.33;;;;;;;;;;4970382;28;20042;-80
2021/04/22 12:49:35;;;;;;;10.65;3.50;;;;;;;;;;4969698;28;20375;-76
2021/04/22 12:52:00;;;;;;;8.77;3.28;;;;;;;;;;4970529;28;20019;-76
2021/04/22 12:54:26;;;;;;;10.30;3.35;;;;;;;;;;4979720;28;20022;-77
2021/04/22 12:56:55;;;;;;;11.15;3.15;;;;;;;;;;4970717;28;20457;-78
2021/04/22 12:59:21;;;;;;;10.07;3.53;;;;;;;;;;4975899;28;20033;-78
2021/04/22 13:01:46;;;;;;;10.32;3.40;;;;;;;;;;4968990;28;20019;-78
2021/04/22 13:04:15;;;;;;;10.20;3.10;;;;;;;;;;4975895;28;20030;-77
2021/04/22 13:06:44;;;;;;;8.30;3.20;;;;;;;;;;4973947;28;20034;-76
2021/04/22 13:09:10;;;;;;;6.82;3.20;;;;;;;;;;4973563;28;20026;-76
2021/04/22 13:11:36;;;;;;;14.75;3.40;;;;;;;;;;4973127;28;20058;-77
2021/04/22 13:14:05;;;;;;;9.18;3.38;;;;;;;;;;4972942;28;20066;-78
2021/04/22 13:16:32;;;;;;;8.40;3.85;;;;;;;;;;4968766;28;20025;-77
2021/04/22 13:18:58;;;;;;;10.35;3.55;;;;;;;;;;4963351;28;20023;-78
2021/04/22 13:21:28;;;;;;;8.00;3.10;;;;;;;;;;4969838;28;20090;-78
2021/04/22 13:23:53;;;;;;;8.95;3.53;;;;;;;;;;4973765;28;20019;-78
2021/04/22 13:26:23;;;;;;;13.83;3.10;;;;;;;;;;4969048;28;20088;-80
2021/04/22 13:28:51;;;;;;;11.88;3.70;;;;;;;;;;4964692;28;20384;-79
2021/04/22 13:31:21;;;;;;;9.40;3.58;;;;;;;;;;4968954;28;20050;-78
2021/04/22 13:33:47;;;;;;;8.20;3.35;;;;;;;;;;4969481;28;20075;-78
2021/04/22 13:36:13;;;;;;;9.52;3.28;;;;;;;;;;4973385;28;20108;-78
2021/04/22 13:39:27;;;;;;;;;;;;;;;;;;;;;
2021/04/22 13:41:52;;;;;;;9.77;3.85;;;;;;;;;;4973133;28;20026;-80
2021/04/22 13:44:18;;;;;;;8.10;3.63;;;;;;;;;;4974216;28;20515;-80
2021/04/22 13:46:53;;;;;;;8.13;3.60;;;;;;;;;;4964609;28;20026;-79
2021/04/22 13:49:23;;;;;;;15.32;3.72;;;;;;;;;;4969338;28;20058;-79
2021/04/22 13:51:51;;;;;;;8.35;3.80;;;;;;;;;;4974584;28;20015;-79
2021/04/22 13:54:21;;;;;;;12.57;4.07;;;;;;;;;;4974855;28;20057;-80
2021/04/22 13:56:47;;;;;;;9.07;3.85;;;;;;;;;;4973367;28;20046;-80
2021/04/22 13:59:32;;;;;;;7.60;3.63;;;;;;;;;;4971665;28;20218;-80
2021/04/22 14:02:00;;;;;;;10.15;4.00;;;;;;;;;;4973007;28;20026;-80
2021/04/22 14:04:26;;;;;;;13.02;4.10;;;;;;;;;;4967322;28;20094;-80
2021/04/22 14:06:52;;;;;;;9.82;4.20;;;;;;;;;;4969407;28;20107;-79
2021/04/22 14:09:17;;;;;;;10.40;4.05;;;;;;;;;;4973981;28;20034;-79
2021/04/22 14:11:44;;;;;;;11.43;3.97;;;;;;;;;;4972016;28;20086;-79
2021/04/22 14:14:10;;;;;;;7.85;3.63;;;;;;;;;;4971867;28;20357;-79
2021/04/22 14:16:36;;;;;;;13.65;4.30;;;;;;;;;;4950934;28;20452;-79
2021/04/22 14:19:04;;;;;;;11.45;4.53;;;;;;;;;;4970817;28;20073;-79
2021/04/22 14:21:29;;;;;;;12.00;4.55;;;;;;;;;;4970485;28;20026;-78
2021/04/22 14:23:55;;;;;;;11.47;4.57;;;;;;;;;;4962410;28;20504;-78
2021/04/22 14:26:23;;;;;;;13.90;4.45;;;;;;;;;;4973872;28;20023;-78
2021/04/22 14:28:49;;;;;;;11.95;4.85;;;;;;;;;;4977173;28;20086;-77
2021/04/22 14:31:15;;;;;;;10.85;4.43;;;;;;;;;;4977074;28;20103;-78
2021/04/22 14:33:42;;;;;;;9.13;4.38;;;;;;;;;;4975625;28;20026;-78